createdAt,value
2022-10-20T00:00:02.596Z,1.63
2022-10-20T00:02:36.243Z,1.55
2022-10-20T00:05:04.714Z,1.50
2022-10-20T00:07:38.937Z,1.40
2022-10-20T00:10:06.906Z,2.17
2022-10-20T00:12:40.818Z,1.75
2022-10-20T00:15:09.977Z,1.88
2022-10-20T00:17:44.776Z,2.08
2022-10-20T00:22:46.906Z,1.38
2022-10-20T00:25:14.186Z,1.67
2022-10-20T00:27:47.901Z,1.70
2022-10-20T00:30:15.147Z,1.90
2022-10-20T00:32:49.368Z,1.50
2022-10-20T00:35:17.442Z,1.87
2022-10-20T00:37:50.931Z,1.65
2022-10-20T00:40:37.893Z,1.65
2022-10-20T00:43:16.835Z,1.67
2022-10-20T00:46:00.093Z,1.20
2022-10-20T00:48:30.172Z,1.83
2022-10-20T00:51:04.857Z,1.45
2022-10-20T00:53:32.502Z,1.60
2022-10-20T00:56:08.151Z,1.60
2022-10-20T00:58:35.836Z,1.88
2022-10-20T01:01:09.847Z,1.40
2022-10-20T01:03:50.534Z,1.40
2022-10-20T01:06:28.830Z,2.03
2022-10-20T01:08:56.254Z,1.70
2022-10-20T01:11:41.871Z,1.80
2022-10-20T01:17:09.943Z,2.30
2022-10-20T01:19:47.194Z,1.77
2022-10-20T01:23:05.466Z,1.38
2022-10-20T01:25:54.579Z,1.75
2022-10-20T01:28:43.469Z,1.60
2022-10-20T01:31:27.633Z,1.70
2022-10-20T01:34:24.487Z,1.92
2022-10-20T01:36:58.376Z,1.70
2022-10-20T01:39:51.741Z,1.45
2022-10-20T01:45:04.136Z,1.70
2022-10-20T01:47:39.539Z,1.85
2022-10-20T01:50:09.046Z,2.08
2022-10-20T01:52:43.469Z,2.22
2022-10-20T01:55:16.167Z,2.30
2022-10-20T01:57:58.562Z,2.00
2022-10-20T02:00:26.539Z,2.63
2022-10-20T02:03:09.537Z,2.22
2022-10-20T02:05:44.681Z,1.88
2022-10-20T02:11:07.496Z,2.20
2022-10-20T02:13:45.476Z,2.03
2022-10-20T02:16:32.663Z,1.95
2022-10-20T02:19:07.431Z,2.00
2022-10-20T02:21:55.056Z,2.65
2022-10-20T02:24:32.729Z,2.00
2022-10-20T02:27:10.507Z,1.77
2022-10-20T02:29:42.667Z,2.03
2022-10-20T02:32:18.423Z,2.00
2022-10-20T02:34:45.977Z,1.92
2022-10-20T02:37:19.482Z,2.30
2022-10-20T02:39:53.526Z,2.45
2022-10-20T02:42:27.723Z,2.20
2022-10-20T02:44:56.361Z,1.83
2022-10-20T02:47:23.781Z,2.15
2022-10-20T02:49:57.506Z,1.67
2022-10-20T02:52:25.371Z,2.03
2022-10-20T02:54:59.523Z,2.17
2022-10-20T02:57:27.446Z,2.53
2022-10-20T03:00:01.488Z,2.08
2022-10-20T03:02:28.727Z,1.77
2022-10-20T03:05:02.551Z,1.90
2022-10-20T03:07:29.742Z,1.67
2022-10-20T03:10:04.491Z,1.85
2022-10-20T03:12:32.383Z,2.00
2022-10-20T03:15:06.555Z,2.28
2022-10-20T03:17:34.102Z,2.17
2022-10-20T03:20:08.692Z,1.60
2022-10-20T03:22:55.408Z,1.63
2022-10-20T03:25:30.326Z,1.67
2022-10-20T03:27:58.158Z,1.90
2022-10-20T03:30:33.557Z,1.48
2022-10-20T03:33:00.853Z,1.90
2022-10-20T03:35:35.486Z,1.85
2022-10-20T03:38:03.593Z,1.98
2022-10-20T03:40:37.532Z,1.73
2022-10-20T03:43:04.742Z,2.08
2022-10-20T03:45:38.454Z,2.17
2022-10-20T03:48:06.656Z,1.30
2022-10-20T03:50:40.473Z,2.53
2022-10-20T03:53:08.583Z,2.00
2022-10-20T03:55:45.400Z,2.10
2022-10-20T03:58:12.608Z,1.80
2022-10-20T04:00:46.486Z,1.80
2022-10-20T04:03:21.423Z,1.50
2022-10-20T04:05:48.606Z,1.90
2022-10-20T04:08:22.473Z,1.65
2022-10-20T04:10:51.376Z,1.60
2022-10-20T04:13:25.677Z,1.77
2022-10-20T04:15:52.963Z,1.60
2022-10-20T04:18:26.587Z,1.67
2022-10-20T04:21:13.434Z,1.80
2022-10-20T04:23:47.476Z,1.90
2022-10-20T04:26:16.763Z,2.50
2022-10-20T04:28:50.348Z,1.88
2022-10-20T04:31:24.780Z,1.92
2022-10-20T04:33:52.041Z,2.03
2022-10-20T04:36:25.461Z,1.48
2022-10-20T04:38:59.612Z,1.60
2022-10-20T04:41:27.781Z,1.70
2022-10-20T04:44:01.637Z,2.10
2022-10-20T04:46:29.537Z,2.30
2022-10-20T04:49:03.576Z,1.95
2022-10-20T04:51:30.880Z,2.45
2022-10-20T04:56:32.780Z,2.20
2022-10-20T04:59:09.699Z,2.42
2022-10-20T05:01:40.106Z,2.00
2022-10-20T05:04:13.890Z,2.47
2022-10-20T05:06:41.192Z,1.90
2022-10-20T05:09:15.599Z,2.00
2022-10-20T05:11:50.587Z,1.80
2022-10-20T05:16:58.425Z,2.08
2022-10-20T05:19:25.512Z,2.60
2022-10-20T05:22:12.505Z,3.20
2022-10-20T05:24:46.506Z,2.65
2022-10-20T05:27:13.976Z,1.67
2022-10-20T05:29:47.954Z,2.35
2022-10-20T05:32:15.197Z,2.40
2022-10-20T05:34:50.486Z,2.70
2022-10-20T05:37:18.299Z,2.13
2022-10-20T05:39:52.567Z,1.90
2022-10-20T05:42:27.546Z,1.93
2022-10-20T05:47:28.925Z,2.08
2022-10-20T05:50:02.532Z,2.42
2022-10-20T05:52:37.913Z,2.30
2022-10-20T05:55:14.568Z,2.50
2022-10-20T05:57:42.008Z,2.47
2022-10-20T06:00:16.547Z,2.40
2022-10-20T06:02:50.575Z,2.17
2022-10-20T06:05:17.747Z,2.17
2022-10-20T06:07:51.509Z,2.50
2022-10-20T06:10:18.851Z,2.05
2022-10-20T06:12:52.565Z,2.78
2022-10-20T06:15:20.056Z,2.25
2022-10-20T06:17:54.521Z,1.80
2022-10-20T06:20:21.771Z,2.78
2022-10-20T06:23:03.565Z,2.53
2022-10-20T06:25:37.854Z,2.40
2022-10-20T06:28:11.499Z,2.73
2022-10-20T06:30:38.905Z,2.38
2022-10-20T06:33:12.474Z,2.38
2022-10-20T06:35:39.895Z,2.45
2022-10-20T06:38:14.424Z,3.95
2022-10-20T06:40:41.757Z,2.28
2022-10-20T06:43:15.419Z,2.30
2022-10-20T06:45:42.890Z,2.65
2022-10-20T06:48:16.614Z,2.10
2022-10-20T06:50:43.955Z,2.70
2022-10-20T06:53:12.640Z,2.65
2022-10-20T06:55:46.957Z,2.85
2022-10-20T06:58:14.519Z,2.63
2022-10-20T07:00:48.585Z,2.75
2022-10-20T07:03:15.884Z,3.15
2022-10-20T07:05:49.821Z,2.55
2022-10-20T07:08:17.022Z,2.00
2022-10-20T07:10:51.891Z,2.80
2022-10-20T07:13:19.059Z,3.08
2022-10-20T07:15:53.525Z,2.53
2022-10-20T07:18:22.025Z,2.17
2022-10-20T07:20:55.538Z,2.13
2022-10-20T07:23:32.456Z,3.33
2022-10-20T07:26:22.546Z,3.35
2022-10-20T07:29:05.525Z,2.97
2022-10-20T07:31:38.970Z,2.72
2022-10-20T07:34:30.977Z,2.97
2022-10-20T07:37:05.494Z,2.80
2022-10-20T07:39:39.727Z,3.00
2022-10-20T07:42:06.785Z,2.30
2022-10-20T07:44:34.015Z,3.40
2022-10-20T07:47:07.530Z,2.58
2022-10-20T07:49:49.974Z,2.45
2022-10-20T07:52:23.556Z,2.90
2022-10-20T07:55:06.379Z,2.38
2022-10-20T07:57:45.049Z,2.63
2022-10-20T08:00:20.515Z,3.15
2022-10-20T08:02:48.204Z,2.92
2022-10-20T08:05:22.499Z,3.65
2022-10-20T08:07:49.894Z,2.77
2022-10-20T08:10:23.424Z,2.85
2022-10-20T08:12:50.947Z,3.00
2022-10-20T08:15:24.570Z,2.60
2022-10-20T08:17:52.289Z,3.17
2022-10-20T08:20:29.375Z,2.78
2022-10-20T08:23:03.704Z,2.92
2022-10-20T08:25:37.535Z,3.33
2022-10-20T08:28:05.181Z,3.17
2022-10-20T08:30:40.567Z,2.20
2022-10-20T08:33:07.893Z,2.08
2022-10-20T08:35:41.853Z,3.08
2022-10-20T08:38:09.463Z,3.05
2022-10-20T08:40:47.564Z,2.63
2022-10-20T08:43:21.793Z,2.67
2022-10-20T08:45:55.532Z,2.73
2022-10-20T08:48:29.774Z,2.95
2022-10-20T08:51:04.796Z,2.40
2022-10-20T08:56:09.594Z,2.90
2022-10-20T08:58:41.934Z,2.93
2022-10-20T09:01:29.717Z,3.20
2022-10-20T09:04:24.204Z,2.30
2022-10-20T09:07:06.634Z,2.60
2022-10-20T09:09:35.394Z,2.75
2022-10-20T09:12:14.674Z,2.17
2022-10-20T09:14:42.703Z,2.40
2022-10-20T09:17:24.034Z,3.10
2022-10-20T09:19:57.115Z,2.67
2022-10-20T09:22:36.122Z,2.45
2022-10-20T09:25:04.183Z,2.53
2022-10-20T09:27:46.534Z,3.13
2022-10-20T09:30:28.806Z,2.45
2022-10-20T09:33:03.117Z,2.00
2022-10-20T09:35:41.463Z,2.72
2022-10-20T09:38:11.694Z,2.25
2022-10-20T09:41:01.684Z,2.00
2022-10-20T09:43:35.877Z,2.30
2022-10-20T09:46:10.479Z,2.57
2022-10-20T09:48:55.526Z,2.20
2022-10-20T09:51:25.824Z,2.33
2022-10-20T09:54:21.499Z,2.30
2022-10-20T09:56:50.027Z,2.20
2022-10-20T09:59:32.469Z,2.65
2022-10-20T10:02:10.921Z,2.15
2022-10-20T10:04:47.651Z,2.70
2022-10-20T10:07:32.459Z,2.67
2022-10-20T10:10:08.622Z,2.25
2022-10-20T10:12:36.918Z,2.92
2022-10-20T10:15:29.601Z,2.70
2022-10-20T10:17:57.718Z,2.42
2022-10-20T10:20:37.991Z,2.58
2022-10-20T10:23:32.229Z,2.15
2022-10-20T10:26:06.689Z,2.65
2022-10-20T10:28:38.819Z,1.95
2022-10-20T10:31:30.700Z,2.75
2022-10-20T10:34:19.544Z,2.38
2022-10-20T10:36:46.911Z,2.15
2022-10-20T10:39:22.484Z,1.83
2022-10-20T10:42:03.325Z,2.30
2022-10-20T10:45:41.544Z,2.92
2022-10-20T10:49:02.820Z,2.78
2022-10-20T10:51:48.871Z,2.42
2022-10-20T10:54:27.921Z,2.28
2022-10-20T10:57:08.049Z,1.95
2022-10-20T10:59:49.564Z,1.85
2022-10-20T11:02:36.425Z,2.80
2022-10-20T11:05:40.916Z,3.00
2022-10-20T11:08:38.807Z,3.10
2022-10-20T11:11:44.965Z,2.50
2022-10-20T11:17:04.610Z,3.08
2022-10-20T11:19:46.269Z,2.65
2022-10-20T11:22:28.516Z,2.35
2022-10-20T11:25:35.497Z,2.63
2022-10-20T11:28:03.025Z,2.42
2022-10-20T11:30:40.930Z,2.63
2022-10-20T11:33:17.401Z,3.22
2022-10-20T11:36:22.615Z,3.10
2022-10-20T11:38:56.995Z,2.85
2022-10-20T11:41:33.725Z,2.53
2022-10-20T11:44:04.455Z,3.28
2022-10-20T11:46:52.586Z,3.63
2022-10-20T11:49:20.625Z,2.55
2022-10-20T11:52:31.614Z,2.30
2022-10-20T11:55:35.596Z,3.78
2022-10-20T11:58:42.635Z,2.92
2022-10-20T12:01:28.633Z,3.28
2022-10-20T12:04:12.525Z,3.10
2022-10-20T12:06:48.994Z,2.60
2022-10-20T12:10:11.063Z,2.83
2022-10-20T12:13:17.095Z,2.70
2022-10-20T12:15:57.555Z,3.33
2022-10-20T12:18:35.735Z,3.03
2022-10-20T12:21:12.529Z,2.88
2022-10-20T12:24:07.994Z,3.53
2022-10-20T12:26:45.594Z,2.60
2022-10-20T12:29:48.676Z,3.97
2022-10-20T12:32:40.084Z,2.88
2022-10-20T12:35:17.903Z,2.90
2022-10-20T12:38:03.085Z,3.55
2022-10-20T12:41:04.643Z,3.17
2022-10-20T12:43:42.877Z,3.33
2022-10-20T12:46:16.208Z,3.78
2022-10-20T12:48:53.697Z,3.72
2022-10-20T12:51:27.164Z,3.25
2022-10-20T12:54:23.635Z,2.90
2022-10-20T12:56:52.825Z,2.95
2022-10-20T12:59:35.705Z,2.75
2022-10-20T13:02:14.235Z,3.15
2022-10-20T13:05:04.716Z,3.33
2022-10-20T13:08:21.595Z,3.25
2022-10-20T13:10:56.537Z,2.45
2022-10-20T13:13:30.712Z,3.38
2022-10-20T13:15:59.787Z,3.43
2022-10-20T13:18:45.616Z,2.30
2022-10-20T13:21:49.793Z,2.58
2022-10-20T13:24:42.680Z,2.80
2022-10-20T13:27:12.866Z,4.20
2022-10-20T13:29:50.534Z,3.47
2022-10-20T13:32:30.858Z,3.35
2022-10-20T13:35:27.755Z,2.80
2022-10-20T13:38:08.477Z,3.13
2022-10-20T13:40:58.730Z,3.03
2022-10-20T13:43:59.382Z,2.85
2022-10-20T13:46:41.529Z,2.83
2022-10-20T13:49:20.658Z,4.05
2022-10-20T13:51:58.665Z,3.22
2022-10-20T13:54:36.584Z,3.85
2022-10-20T13:57:05.043Z,3.58
2022-10-20T13:59:40.663Z,3.90
2022-10-20T14:02:29.852Z,3.33
2022-10-20T14:05:19.565Z,2.80
2022-10-20T14:07:53.874Z,3.08
2022-10-20T14:10:53.846Z,3.85
2022-10-20T14:13:33.696Z,3.95
2022-10-20T14:16:04.355Z,3.30
2022-10-20T14:18:42.794Z,3.50
2022-10-20T14:21:18.691Z,2.72
2022-10-20T14:23:59.654Z,3.30
2022-10-20T14:26:33.858Z,2.67
2022-10-20T14:29:10.768Z,2.70
2022-10-20T14:31:45.375Z,2.30
2022-10-20T14:34:30.684Z,2.75
2022-10-20T14:36:59.234Z,3.65
2022-10-20T14:39:46.615Z,4.03
2022-10-20T14:42:36.616Z,3.35
2022-10-20T14:45:12.096Z,3.42
2022-10-20T14:47:41.844Z,3.20
2022-10-20T14:50:30.874Z,3.28
2022-10-20T14:52:58.247Z,2.60
2022-10-20T14:55:46.735Z,2.78
2022-10-20T14:59:02.738Z,3.50
2022-10-20T15:01:39.697Z,2.80
2022-10-20T15:04:28.503Z,2.70
2022-10-20T15:07:30.715Z,3.00
2022-10-20T15:10:08.175Z,3.25
2022-10-20T15:12:48.695Z,2.85
2022-10-20T15:15:28.675Z,2.90
2022-10-20T15:18:10.706Z,3.00
2022-10-20T15:20:51.673Z,2.80
2022-10-20T15:23:43.675Z,3.42
2022-10-20T15:26:14.926Z,2.45
2022-10-20T15:28:57.714Z,2.78
2022-10-20T15:31:30.168Z,2.60
2022-10-20T15:34:05.606Z,2.63
2022-10-20T15:36:34.517Z,2.70
2022-10-20T15:39:09.084Z,2.85
2022-10-20T15:41:37.055Z,2.97
2022-10-20T15:44:22.931Z,2.65
2022-10-20T15:46:56.024Z,3.15
2022-10-20T15:49:30.754Z,2.78
2022-10-20T15:51:58.606Z,2.88
2022-10-20T15:54:32.996Z,3.08
2022-10-20T15:57:06.635Z,2.78
2022-10-20T15:59:40.694Z,2.58
2022-10-20T16:02:19.733Z,2.10
2022-10-20T16:04:47.455Z,2.67
2022-10-20T16:07:21.584Z,3.47
2022-10-20T16:09:48.876Z,2.70
2022-10-20T16:12:25.636Z,2.50
2022-10-20T16:14:54.195Z,2.40
2022-10-20T16:17:27.585Z,2.40
2022-10-20T16:19:54.974Z,2.30
2022-10-20T16:22:29.675Z,3.05
2022-10-20T16:25:05.156Z,2.67
2022-10-20T16:27:40.697Z,2.40
2022-10-20T16:30:08.920Z,2.35
2022-10-20T16:32:43.654Z,2.85
2022-10-20T16:35:11.067Z,3.28
2022-10-20T16:37:44.686Z,3.33
2022-10-20T16:40:18.669Z,3.65
2022-10-20T16:42:46.437Z,3.28
2022-10-20T16:45:20.706Z,4.28
2022-10-20T16:47:48.059Z,2.92
2022-10-20T16:50:21.586Z,2.95
2022-10-20T16:52:48.844Z,2.92
2022-10-20T16:55:22.617Z,2.85
2022-10-20T16:57:50.068Z,2.88
2022-10-20T17:00:23.660Z,3.28
2022-10-20T17:02:54.785Z,2.70
2022-10-20T17:05:31.774Z,2.92
2022-10-20T17:08:00.183Z,3.05
2022-10-20T17:10:33.944Z,3.00
2022-10-20T17:13:01.536Z,2.92
2022-10-20T17:15:35.699Z,3.88
2022-10-20T17:18:03.283Z,3.03
2022-10-20T17:20:37.714Z,3.22
2022-10-20T17:23:12.051Z,2.63
2022-10-20T17:25:51.580Z,3.53
2022-10-20T17:28:26.652Z,4.05
2022-10-20T17:31:04.618Z,3.03
2022-10-20T17:33:32.273Z,3.40
2022-10-20T17:36:08.641Z,3.13
2022-10-20T17:38:36.532Z,3.03
2022-10-20T17:41:15.872Z,2.90
2022-10-20T17:43:43.222Z,3.38
2022-10-20T17:46:23.063Z,3.30
2022-10-20T17:48:50.736Z,2.90
2022-10-20T17:51:34.856Z,2.95
2022-10-20T17:54:09.676Z,3.05
2022-10-20T17:56:46.841Z,2.58
2022-10-20T17:59:22.016Z,2.90
2022-10-20T18:01:49.253Z,2.85
2022-10-20T18:04:25.916Z,2.67
2022-10-20T18:06:59.851Z,3.20
2022-10-20T18:09:27.148Z,2.60
2022-10-20T18:12:00.657Z,2.85
2022-10-20T18:14:34.630Z,2.92
2022-10-20T18:17:01.900Z,3.05
2022-10-20T18:19:36.098Z,3.20
2022-10-20T18:22:10.886Z,2.97
2022-10-20T18:24:50.696Z,3.40
2022-10-20T18:27:24.877Z,2.72
2022-10-20T18:29:58.726Z,2.90
2022-10-20T18:32:26.019Z,2.75
2022-10-20T18:34:59.684Z,2.78
2022-10-20T18:37:26.979Z,2.65
2022-10-20T18:40:00.739Z,2.45
2022-10-20T18:42:27.999Z,3.40
2022-10-20T18:45:01.763Z,3.30
2022-10-20T18:47:36.055Z,3.30
2022-10-20T18:50:03.896Z,2.70
2022-10-20T18:52:32.080Z,2.70
2022-10-20T18:55:05.701Z,2.75
2022-10-20T18:57:35.121Z,2.80
2022-10-20T19:00:09.798Z,3.63
2022-10-20T19:02:37.165Z,3.25
2022-10-20T19:05:12.210Z,3.00
2022-10-20T19:10:13.885Z,3.50
2022-10-20T19:12:41.324Z,2.80
2022-10-20T19:15:15.819Z,2.60
2022-10-20T19:17:43.321Z,3.13
2022-10-20T19:20:11.481Z,3.00
2022-10-20T19:22:46.579Z,2.92
2022-10-20T19:25:20.784Z,1.90
2022-10-20T19:27:55.239Z,2.60
2022-10-20T19:30:28.806Z,2.50
2022-10-20T19:32:56.439Z,2.40
2022-10-20T19:35:30.739Z,2.30
2022-10-20T19:37:58.250Z,2.70
2022-10-20T19:40:31.743Z,2.72
2022-10-20T19:43:01.174Z,2.40
2022-10-20T19:45:35.643Z,2.20
2022-10-20T19:48:03.830Z,2.20
2022-10-20T19:50:37.814Z,1.90
2022-10-20T19:53:11.743Z,2.00
2022-10-20T19:55:45.699Z,2.55
2022-10-20T19:58:13.481Z,1.90
2022-10-20T20:00:54.866Z,1.90
2022-10-20T20:03:28.799Z,1.50
2022-10-20T20:06:09.326Z,2.10
2022-10-20T20:08:44.790Z,1.73
2022-10-20T20:11:24.179Z,1.92
2022-10-20T20:14:02.689Z,1.63
2022-10-20T20:16:37.041Z,1.60
2022-10-20T20:19:05.219Z,2.05
2022-10-20T20:21:32.979Z,2.08
2022-10-20T20:24:08.844Z,1.92
2022-10-20T20:26:50.784Z,2.38
2022-10-20T20:29:18.420Z,2.20
2022-10-20T20:31:53.202Z,1.90
2022-10-20T20:34:20.956Z,1.90
2022-10-20T20:36:55.101Z,2.00
2022-10-20T20:39:22.528Z,2.50
2022-10-20T20:41:56.790Z,2.00
2022-10-20T20:44:31.318Z,2.15
2022-10-20T20:47:04.596Z,2.13
2022-10-20T20:49:31.826Z,2.38
2022-10-20T20:52:05.690Z,1.98
2022-10-20T20:54:33.247Z,2.03
2022-10-20T20:57:06.726Z,2.00
2022-10-20T20:59:33.871Z,1.80
2022-10-20T21:02:10.284Z,2.10
2022-10-20T21:04:37.675Z,2.05
2022-10-20T21:07:04.811Z,2.00
2022-10-20T21:09:38.927Z,2.20
2022-10-20T21:12:06.385Z,2.80
2022-10-20T21:14:39.891Z,2.08
2022-10-20T21:17:07.045Z,2.28
2022-10-20T21:19:40.675Z,2.05
2022-10-20T21:22:07.920Z,2.30
2022-10-20T21:24:48.806Z,2.10
2022-10-20T21:27:16.025Z,1.85
2022-10-20T21:29:49.869Z,2.40
2022-10-20T21:32:25.647Z,2.50
2022-10-20T21:35:01.693Z,2.63
2022-10-20T21:37:35.738Z,2.90
2022-10-20T21:40:02.852Z,2.45
2022-10-20T21:42:37.034Z,3.92
2022-10-20T21:45:15.430Z,2.38
2022-10-20T21:47:51.923Z,2.70
2022-10-20T21:50:19.245Z,2.10
2022-10-20T21:52:56.804Z,2.30
2022-10-20T21:55:30.897Z,2.60
2022-10-20T21:57:58.002Z,1.90
2022-10-20T22:00:31.718Z,2.20
2022-10-20T22:03:00.483Z,2.35
2022-10-20T22:05:27.614Z,1.73
2022-10-20T22:08:01.687Z,2.25
2022-10-20T22:10:35.777Z,1.98
2022-10-20T22:13:03.448Z,2.40
2022-10-20T22:15:37.647Z,2.15
2022-10-20T22:18:05.306Z,2.27
2022-10-20T22:20:41.699Z,2.45
2022-10-20T22:23:28.956Z,2.20
2022-10-20T22:26:02.717Z,2.17
2022-10-20T22:28:30.217Z,1.80
2022-10-20T22:31:04.674Z,2.17
2022-10-20T22:33:32.014Z,2.42
2022-10-20T22:36:05.751Z,1.92
2022-10-20T22:38:33.246Z,2.33
2022-10-20T22:41:08.767Z,2.35
2022-10-20T22:43:38.097Z,2.78
2022-10-20T22:46:12.758Z,2.00
2022-10-20T22:48:39.937Z,1.98
2022-10-20T22:51:15.751Z,2.10
2022-10-20T22:53:43.687Z,2.17
2022-10-20T22:56:19.814Z,2.20
2022-10-20T22:58:48.037Z,2.38
2022-10-20T23:01:27.848Z,2.08
2022-10-20T23:03:54.952Z,1.67
2022-10-20T23:06:24.907Z,2.13
2022-10-20T23:09:01.855Z,2.25
2022-10-20T23:11:37.067Z,1.83
2022-10-20T23:14:04.276Z,2.63
2022-10-20T23:16:31.454Z,1.88
2022-10-20T23:19:05.782Z,2.85
2022-10-20T23:21:39.742Z,1.90
2022-10-20T23:24:26.790Z,2.22
2022-10-20T23:27:00.746Z,1.95
2022-10-20T23:29:28.663Z,2.00
2022-10-20T23:32:02.686Z,2.42
2022-10-20T23:34:36.749Z,2.42
2022-10-20T23:37:11.029Z,2.15
2022-10-20T23:39:38.156Z,2.30
2022-10-20T23:42:11.922Z,2.50
2022-10-20T23:44:39.144Z,2.90
2022-10-20T23:47:12.782Z,2.00
2022-10-20T23:49:40.032Z,2.03
2022-10-20T23:52:07.182Z,1.90
2022-10-20T23:54:40.898Z,2.00
2022-10-20T23:57:08.038Z,2.20
2022-10-20T23:59:41.827Z,2.10
